Terminal Aerodrome Forecast
Issued by NWS

Home | Current Version | Previous Version | Text Only | Print | Product List | Glossary On
Versions: 1 2 3 4 5 6 7 8 9 10 11 12 13 14 15 16 17 18 19 20 21 22 23 24 25
000
FTUS41 KOKX 011800 RRA
TAFGON
TAF
KGON 011806Z 0118/0218 30010G18KT P6SM SCT040
     FM012300 VRB04KT P6SM BKN040
     FM020400 VRB04KT 2SM -SN SCT008 SCT020 OVC040
     FM020600 VRB04KT 1SM -SN OVC008
     FM021000 07015KT 1SM -SN OVC005
      TEMPO 0211/0214 1/4SM +SN FZFG VV004
     FM021400 05015KT 1SM FZRASN BR OVC004
     FM021600 04012KT 2SM RA OVC004=

USA.gov is the U.S. government's official web portal to all federal, state and local government web resources and services.